Time;durP1;ratioP1;P1;durP2;ratioP2;P2;SDS_P1;SDS_P2;PMS_P1;PMS_P2;Temp;Humidity;BMP_temperature;BMP_pressure;BME280_temperature;BME280_humidity;BME280_pressure;Samples;Min_cycle;Max_cycle;Signal;HPM_P1;HPM_P2
2022/01/24 00:00:14;;;;;;;5.43;3.33;;;6.30;99.90;;;;;;5033555;28;20057;-85
2022/01/24 00:02:42;;;;;;;6.18;3.30;;;5.60;99.90;;;;;;5015519;28;20033;-85
2022/01/24 00:05:09;;;;;;;7.25;3.90;;;5.60;99.90;;;;;;5033093;28;20045;-85
2022/01/24 00:07:35;;;;;;;8.48;4.60;;;5.60;99.90;;;;;;5032594;28;20057;-85
2022/01/24 00:10:04;;;;;;;7.50;3.30;;;5.60;99.90;;;;;;5033094;28;20072;-85
2022/01/24 00:18:13;;;;;;;6.00;2.72;;;5.60;99.90;;;;;;4951501;29;20147;-85
2022/01/24 00:28:52;;;;;;;5.97;3.45;;;5.80;99.90;;;;;;4952207;28;20578;-84
2022/01/24 00:31:17;;;;;;;5.18;3.03;;;5.50;99.90;;;;;;4948005;29;20043;-84
2022/01/24 00:33:43;;;;;;;6.03;3.50;;;5.50;99.90;;;;;;4949035;29;20106;-84
2022/01/24 00:36:09;;;;;;;5.55;3.00;;;5.80;99.90;;;;;;4943860;29;20055;-85
2022/01/24 00:38:34;;;;;;;5.38;2.88;;;5.80;99.90;;;;;;4951995;28;20047;-86
2022/01/24 00:41:00;;;;;;;5.53;3.38;;;5.50;99.90;;;;;;4951917;28;20053;-85
2022/01/24 00:46:31;;;;;;;4.50;2.22;;;5.50;99.90;;;;;;4900071;29;20052;-86
2022/01/24 00:57:01;;;;;;;5.10;2.63;;;5.50;99.90;;;;;;4976298;28;20186;-85
2022/01/24 00:59:26;;;;;;;4.10;2.38;;;5.40;99.90;;;;;;4982740;28;20113;-84
2022/01/24 01:01:53;;;;;;;4.97;2.13;;;5.40;99.90;;;;;;4962582;28;20487;-85
2022/01/24 01:04:23;;;;;;;5.03;3.05;;;5.90;99.90;;;;;;4975253;28;20049;-85
2022/01/24 01:06:50;;;;;;;4.50;2.35;;;5.90;99.90;;;;;;4973565;28;20110;-84
2022/01/24 01:20:17;;;;;;;3.90;2.20;;;5.30;99.90;;;;;;4979789;28;20180;-85
2022/01/24 01:22:42;;;;;;;4.75;2.30;;;5.20;99.90;;;;;;4974740;28;20145;-87
2022/01/24 01:25:08;;;;;;;4.10;2.20;;;5.20;99.90;;;;;;5030704;28;20117;-84
2022/01/24 01:27:40;;;;;;;3.60;2.20;;;5.30;99.90;;;;;;4998308;28;20041;-85
2022/01/24 01:30:14;;;;;;;4.10;2.55;;;5.30;99.90;;;;;;5031592;28;20045;-84
2022/01/24 01:32:53;;;;;;;3.90;2.17;;;5.30;99.90;;;;;;5027455;28;20041;-84
2022/01/24 01:56:50;;;;;;;2.65;1.80;;;5.20;99.90;;;;;;5031576;28;20052;-85
2022/01/24 01:59:16;;;;;;;2.92;1.52;;;5.90;99.90;;;;;;5030865;28;20033;-85
2022/01/24 02:01:42;;;;;;;2.97;1.63;;;5.70;99.90;;;;;;5031141;28;20045;-85
2022/01/24 02:04:07;;;;;;;3.15;1.88;;;5.20;99.90;;;;;;5031117;28;20053;-82
2022/01/24 02:06:33;;;;;;;2.85;1.63;;;5.20;99.90;;;;;;5031492;28;20085;-83
2022/01/24 02:09:05;;;;;;;2.28;1.42;;;5.00;99.90;;;;;;5031029;28;20057;-85
2022/01/24 02:11:30;;;;;;;2.83;1.77;;;5.10;99.90;;;;;;5030606;28;20489;-84
2022/01/24 02:14:00;;;;;;;3.03;1.52;;;5.50;99.90;;;;;;5014261;28;20037;-83
2022/01/24 02:16:40;;;;;;;2.75;1.60;;;5.50;99.90;;;;;;5033995;28;21902;-85
2022/01/24 02:19:18;;;;;;;2.30;1.38;;;4.90;99.90;;;;;;5035232;28;20045;-85
2022/01/24 02:21:58;;;;;;;2.25;1.40;;;5.80;99.90;;;;;;5035163;28;20504;-85
2022/01/24 02:24:24;;;;;;;2.28;1.67;;;5.80;99.90;;;;;;5034161;28;20041;-85
2022/01/24 02:26:54;;;;;;;3.70;1.70;;;5.30;99.90;;;;;;5035378;28;20389;-85
2022/01/24 02:29:43;;;;;;;2.60;1.50;;;5.10;99.90;;;;;;5017670;28;20100;-84
2022/01/24 02:32:09;;;;;;;2.45;1.75;;;5.10;99.90;;;;;;5034862;28;20060;-84
2022/01/24 02:34:40;;;;;;;3.05;1.60;;;5.10;99.90;;;;;;5034393;28;20050;-85
2022/01/24 02:37:08;;;;;;;2.78;1.35;;;5.40;99.90;;;;;;5034906;28;20049;-85
2022/01/24 02:39:51;;;;;;;3.05;1.63;;;5.90;99.90;;;;;;5034268;28;20143;-84
2022/01/24 02:53:25;;;;;;;3.80;2.03;;;5.70;99.90;;;;;;5033849;28;20049;-85
2022/01/24 02:55:51;;;;;;;2.80;1.58;;;5.90;99.90;;;;;;5034641;28;20041;-85
2022/01/24 02:58:17;;;;;;;3.22;1.60;;;5.00;99.90;;;;;;5034761;28;20033;-84
2022/01/24 03:00:45;;;;;;;2.75;1.67;;;4.40;99.90;;;;;;5016602;28;20618;-86
2022/01/24 03:03:12;;;;;;;3.72;1.80;;;5.00;99.90;;;;;;5017553;28;20042;-84
2022/01/24 03:05:38;;;;;;;2.65;1.63;;;4.90;99.90;;;;;;5016916;28;20085;-85
2022/01/24 03:08:05;;;;;;;2.88;1.50;;;4.90;99.90;;;;;;5034138;28;20085;-86
2022/01/24 03:10:41;;;;;;;3.35;1.50;;;5.00;99.90;;;;;;5033661;28;20041;-84
2022/01/24 03:13:20;;;;;;;3.28;1.60;;;5.00;99.90;;;;;;5029019;28;20048;-86
2022/01/24 03:15:47;;;;;;;2.15;1.23;;;4.90;99.90;;;;;;5015914;28;20049;-85
2022/01/24 03:18:13;;;;;;;3.03;1.85;;;5.50;99.90;;;;;;5016293;28;20120;-85
2022/01/24 03:20:40;;;;;;;1.95;1.48;;;4.90;99.90;;;;;;5033922;28;20060;-85
2022/01/24 03:23:06;;;;;;;3.30;1.63;;;5.40;99.90;;;;;;5033796;28;20401;-85
2022/01/24 03:25:32;;;;;;;2.67;1.60;;;4.90;99.90;;;;;;5033415;28;20069;-85
2022/01/24 03:27:58;;;;;;;2.65;1.60;;;5.00;99.90;;;;;;5015139;28;20081;-85
2022/01/24 03:30:25;;;;;;;2.88;1.40;;;4.90;99.90;;;;;;5034142;28;20041;-85
2022/01/24 03:32:51;;;;;;;2.85;1.42;;;5.60;99.90;;;;;;5033262;28;20117;-85
2022/01/24 03:35:18;;;;;;;2.08;1.20;;;4.90;99.90;;;;;;5016501;28;20034;-86
2022/01/24 03:37:43;;;;;;;2.53;1.38;;;5.50;99.90;;;;;;5033406;28;20041;-86
2022/01/24 03:40:10;;;;;;;3.97;1.90;;;4.90;99.90;;;;;;5016010;28;20118;-87
2022/01/24 03:42:36;;;;;;;2.88;1.60;;;4.90;99.90;;;;;;5033106;28;20033;-85
2022/01/24 03:45:05;;;;;;;2.95;1.80;;;5.50;99.90;;;;;;5011708;28;20493;-85
2022/01/24 03:50:07;;;;;;;2.65;1.55;;;4.80;99.90;;;;;;5033105;28;20133;-82
2022/01/24 03:52:33;;;;;;;3.20;1.45;;;5.20;99.90;;;;;;5032724;28;20080;-85
2022/01/24 03:55:01;;;;;;;2.72;1.83;;;5.40;99.90;;;;;;5032714;28;20053;-86
2022/01/24 03:57:27;;;;;;;3.50;1.90;;;5.10;99.90;;;;;;5033571;28;20393;-85
2022/01/24 03:59:53;;;;;;;2.33;1.55;;;4.80;99.90;;;;;;5032962;28;20049;-84
2022/01/24 04:02:22;;;;;;;4.55;1.73;;;4.80;99.90;;;;;;5033544;28;20037;-85
2022/01/24 04:04:49;;;;;;;3.47;1.92;;;5.60;99.90;;;;;;5032879;28;20045;-85
2022/01/24 04:07:14;;;;;;;2.70;1.67;;;5.70;99.90;;;;;;5032875;28;20041;-84
2022/01/24 04:09:42;;;;;;;2.95;1.88;;;4.80;99.90;;;;;;5033372;28;20107;-84
2022/01/24 04:12:10;;;;;;;4.20;2.00;;;4.80;99.90;;;;;;5032769;28;20093;-86
2022/01/24 04:14:55;;;;;;;3.05;1.67;;;4.80;99.90;;;;;;5032691;28;20091;-83
2022/01/24 04:17:25;;;;;;;2.95;1.65;;;5.20;99.90;;;;;;5009398;28;20056;-87
2022/01/24 04:22:22;;;;;;;5.25;2.08;;;5.40;99.90;;;;;;5032956;28;20069;-84
2022/01/24 04:24:48;;;;;;;3.03;1.70;;;4.80;99.90;;;;;;5015952;28;20045;-84
2022/01/24 04:27:14;;;;;;;3.90;2.10;;;4.80;99.90;;;;;;5015209;28;20084;-83
2022/01/24 04:29:41;;;;;;;4.40;2.20;;;4.80;99.90;;;;;;5032929;28;20034;-85
2022/01/24 04:32:08;;;;;;;3.60;2.00;;;5.40;99.90;;;;;;5032066;28;20477;-86
2022/01/24 04:34:34;;;;;;;2.83;1.95;;;4.80;99.90;;;;;;5031931;28;20068;-84
2022/01/24 04:36:59;;;;;;;5.78;2.60;;;5.40;99.90;;;;;;5032255;28;20053;-85
2022/01/24 04:39:25;;;;;;;3.60;2.33;;;4.70;99.90;;;;;;5031539;28;20074;-85
2022/01/24 04:41:54;;;;;;;3.40;1.98;;;5.30;99.90;;;;;;5032741;28;20045;-83
2022/01/24 04:54:42;;;;;;;4.13;2.08;;;5.40;99.90;;;;;;5014332;28;20107;-85
2022/01/24 04:57:13;;;;;;;3.60;1.90;;;4.80;99.90;;;;;;5031666;28;20091;-86
2022/01/24 04:59:40;;;;;;;5.25;2.22;;;5.30;99.90;;;;;;5032268;28;20045;-85
2022/01/24 05:02:06;;;;;;;3.42;2.17;;;4.70;99.90;;;;;;5031210;28;20131;-86
2022/01/24 05:04:32;;;;;;;5.18;2.90;;;4.70;99.90;;;;;;5014910;28;20061;-86
2022/01/24 05:06:58;;;;;;;4.22;2.08;;;5.10;99.90;;;;;;5032124;28;20076;-86
2022/01/24 05:09:25;;;;;;;3.85;2.30;;;4.70;99.90;;;;;;5031543;28;20049;-84
2022/01/24 05:11:57;;;;;;;3.67;2.28;;;4.70;99.90;;;;;;5031889;28;20045;-86
2022/01/24 05:25:20;;;;;;;3.95;2.03;;;5.60;99.90;;;;;;5031094;28;20056;-85
2022/01/24 05:27:46;;;;;;;5.35;2.63;;;5.30;99.90;;;;;;5031930;28;20045;-82
2022/01/24 05:30:14;;;;;;;5.25;2.55;;;5.30;99.90;;;;;;5031359;28;20124;-85
2022/01/24 05:32:40;;;;;;;5.40;2.65;;;4.80;99.90;;;;;;5024860;28;20088;-84
2022/01/24 05:35:06;;;;;;;5.38;2.70;;;5.10;99.90;;;;;;5031572;28;20552;-83
2022/01/24 05:37:32;;;;;;;3.92;2.28;;;4.70;99.90;;;;;;5031072;28;20037;-83
2022/01/24 05:39:58;;;;;;;5.28;2.65;;;4.70;99.90;;;;;;5031496;28;20054;-86
2022/01/24 05:42:23;;;;;;;3.33;2.10;;;5.60;99.90;;;;;;5031485;28;20535;-86
2022/01/24 05:44:49;;;;;;;5.28;2.92;;;4.70;99.90;;;;;;5031910;28;20044;-85
2022/01/24 05:47:16;;;;;;;5.70;2.92;;;5.20;99.90;;;;;;5030986;28;20080;-83
2022/01/24 05:49:42;;;;;;;4.82;2.85;;;5.30;99.90;;;;;;5032263;28;20084;-85
2022/01/24 05:52:09;;;;;;;5.18;2.85;;;5.10;99.90;;;;;;5020658;28;20508;-85
2022/01/24 05:54:42;;;;;;;4.30;2.42;;;4.70;99.90;;;;;;5037526;28;20045;-86
2022/01/24 05:57:09;;;;;;;4.88;2.65;;;4.70;99.90;;;;;;5020759;28;20056;-85
2022/01/24 05:59:35;;;;;;;5.72;3.03;;;4.70;99.90;;;;;;5038024;28;20033;-84
2022/01/24 06:02:01;;;;;;;5.85;2.90;;;5.10;99.90;;;;;;5038223;28;20045;-85
2022/01/24 06:04:26;;;;;;;5.35;2.80;;;5.60;99.90;;;;;;5020433;28;20383;-85
2022/01/24 06:06:52;;;;;;;5.85;3.42;;;5.00;99.90;;;;;;5037554;28;20467;-85
2022/01/24 06:09:18;;;;;;;6.60;3.63;;;4.70;99.90;;;;;;5037882;28;20073;-83
2022/01/24 06:11:43;;;;;;;6.80;3.67;;;4.70;99.90;;;;;;5037412;28;20037;-85
2022/01/24 06:14:10;;;;;;;7.80;3.42;;;4.70;99.90;;;;;;5037846;28;20396;-85
2022/01/24 06:16:36;;;;;;;8.40;4.05;;;5.10;99.90;;;;;;5036985;28;20049;-86
2022/01/24 06:19:02;;;;;;;7.50;3.92;;;5.00;99.90;;;;;;4987832;28;20037;-84
2022/01/24 06:21:28;;;;;;;8.27;3.42;;;4.70;99.90;;;;;;5037365;28;20091;-84
2022/01/24 06:23:53;;;;;;;9.05;4.10;;;5.60;99.90;;;;;;5037848;28;20041;-85
2022/01/24 06:26:19;;;;;;;7.15;3.90;;;5.40;99.90;;;;;;5037790;28;20040;-85
2022/01/24 06:28:45;;;;;;;10.00;4.40;;;4.80;99.90;;;;;;5037573;28;20509;-85
2022/01/24 06:31:10;;;;;;;7.57;3.72;;;5.30;99.90;;;;;;5020361;28;20125;-86
2022/01/24 06:33:36;;;;;;;9.07;3.90;;;4.70;99.90;;;;;;5037564;28;20046;-85
2022/01/24 06:36:02;;;;;;;7.55;4.53;;;5.40;99.90;;;;;;5037521;28;20124;-84
2022/01/24 06:38:29;;;;;;;10.07;3.97;;;4.70;99.90;;;;;;5037569;28;20075;-84
2022/01/24 06:40:54;;;;;;;7.30;4.00;;;5.20;99.90;;;;;;5020442;28;20046;-85
2022/01/24 06:43:20;;;;;;;10.20;4.72;;;4.70;99.90;;;;;;5020518;28;20068;-86
2022/01/24 06:45:46;;;;;;;8.93;4.50;;;5.50;99.90;;;;;;5019626;28;20045;-86
2022/01/24 06:48:11;;;;;;;9.73;4.60;;;4.80;99.90;;;;;;5020418;28;20507;-86
2022/01/24 06:50:37;;;;;;;9.98;4.32;;;5.40;99.90;;;;;;5036874;28;20046;-85
2022/01/24 06:53:03;;;;;;;9.85;5.00;;;5.30;99.90;;;;;;5037606;28;20041;-86
2022/01/24 06:55:29;;;;;;;9.50;4.82;;;4.70;99.90;;;;;;5037397;28;20128;-83
2022/01/24 06:57:54;;;;;;;6.85;3.63;;;4.70;99.90;;;;;;5036847;28;20029;-84
2022/01/24 07:00:25;;;;;;;8.77;3.92;;;4.80;99.90;;;;;;5037845;28;20041;-85
2022/01/24 07:02:55;;;;;;;8.05;4.35;;;5.40;99.90;;;;;;5033321;28;20506;-86
2022/01/24 07:05:20;;;;;;;8.77;4.30;;;5.20;99.90;;;;;;5018280;28;20045;-85
2022/01/24 07:07:46;;;;;;;9.43;4.88;;;4.70;99.90;;;;;;5016156;28;20041;-85
2022/01/24 07:10:12;;;;;;;7.70;4.10;;;4.70;99.90;;;;;;5034545;28;20049;-84
2022/01/24 07:12:38;;;;;;;10.35;4.25;;;4.70;99.90;;;;;;5034470;28;20040;-82
2022/01/24 07:15:09;;;;;;;8.60;4.43;;;4.70;99.90;;;;;;5034047;28;20033;-86
2022/01/24 07:20:21;;;;;;;8.13;4.20;;;5.40;99.90;;;;;;4992862;28;20043;-85
2022/01/24 07:22:46;;;;;;;10.13;5.03;;;4.70;99.90;;;;;;4965395;28;20109;-86
2022/01/24 07:25:12;;;;;;;8.77;4.10;;;5.40;99.90;;;;;;4992361;28;20132;-86
2022/01/24 07:27:38;;;;;;;9.77;4.70;;;5.20;99.90;;;;;;4984426;28;20387;-84
2022/01/24 07:30:05;;;;;;;7.40;3.25;;;4.70;99.90;;;;;;4967721;28;20149;-86
2022/01/24 07:32:31;;;;;;;9.40;4.05;;;4.70;99.90;;;;;;4975780;28;20218;-86
2022/01/24 07:34:57;;;;;;;9.32;4.38;;;5.50;99.90;;;;;;4975277;28;20125;-85
2022/01/24 07:37:25;;;;;;;8.50;4.15;;;5.60;99.90;;;;;;4984758;28;20069;-86
2022/01/24 07:39:54;;;;;;;7.75;3.80;;;5.10;99.90;;;;;;4986151;28;20446;-84
2022/01/24 07:42:50;;;;;;;8.38;4.18;;;4.70;99.90;;;;;;4987909;28;20038;-85
2022/01/24 07:45:14;;;;;;;9.40;4.68;;;4.70;99.90;;;;;;4976370;28;20151;-85
2022/01/24 07:47:40;;;;;;;9.73;3.80;;;4.70;99.90;;;;;;4977313;28;20151;-86
2022/01/24 07:50:06;;;;;;;10.38;4.43;;;4.70;99.90;;;;;;4977825;28;20085;-83
2022/01/24 07:52:32;;;;;;;8.88;4.38;;;4.70;99.90;;;;;;4969826;28;20526;-85
2022/01/24 07:54:58;;;;;;;8.60;4.00;;;4.70;99.90;;;;;;4988505;28;20125;-84
2022/01/24 07:57:23;;;;;;;7.75;4.35;;;5.10;99.90;;;;;;5004088;28;20053;-81
2022/01/24 07:59:49;;;;;;;8.27;3.70;;;4.70;99.90;;;;;;5033724;28;20068;-81
2022/01/24 08:02:15;;;;;;;6.97;3.88;;;5.20;99.90;;;;;;5015581;28;20442;-83
2022/01/24 08:04:40;;;;;;;10.05;3.67;;;4.70;99.90;;;;;;5032939;28;20044;-85
2022/01/24 08:07:06;;;;;;;9.15;5.03;;;4.70;99.90;;;;;;5032405;28;20045;-82
2022/01/24 08:09:32;;;;;;;8.77;4.57;;;5.50;99.90;;;;;;5033074;28;20248;-86
2022/01/24 08:11:57;;;;;;;7.57;4.05;;;5.10;99.90;;;;;;5032650;28;20049;-83
2022/01/24 08:14:23;;;;;;;6.95;4.20;;;4.20;99.90;;;;;;5015684;28;20041;-83
2022/01/24 08:16:49;;;;;;;10.98;5.05;;;4.70;99.90;;;;;;5015051;28;20482;-83
2022/01/24 08:19:14;;;;;;;7.68;4.35;;;5.80;99.90;;;;;;5032173;28;20116;-86
2022/01/24 08:21:40;;;;;;;7.18;4.10;;;5.20;99.90;;;;;;5015449;28;20060;-85
2022/01/24 08:24:07;;;;;;;8.77;4.32;;;4.80;99.90;;;;;;5015084;28;20037;-84
2022/01/24 08:26:33;;;;;;;8.07;3.88;;;5.60;99.90;;;;;;5015190;28;20041;-85
2022/01/24 08:28:59;;;;;;;7.78;4.03;;;5.00;99.90;;;;;;5014708;28;20048;-83
2022/01/24 08:31:25;;;;;;;7.45;4.40;;;5.60;99.90;;;;;;4997708;28;20053;-87
2022/01/24 08:33:51;;;;;;;9.32;4.70;;;5.40;99.90;;;;;;5032402;28;20401;-84
2022/01/24 08:36:16;;;;;;;7.70;3.90;;;5.60;99.90;;;;;;5014900;28;20485;-85
2022/01/24 08:38:46;;;;;;;8.20;4.55;;;5.40;99.90;;;;;;5014716;28;20052;-83
2022/01/24 08:41:19;;;;;;;8.82;4.70;;;5.00;99.90;;;;;;5031890;28;20128;-83
2022/01/24 08:46:13;;;;;;;6.82;3.78;;;4.60;99.90;;;;;;5014599;28;20069;-85
2022/01/24 08:48:38;;;;;;;7.43;3.95;;;5.30;99.90;;;;;;5031905;28;20037;-85
2022/01/24 08:51:05;;;;;;;9.73;4.32;;;5.00;99.90;;;;;;5032734;28;20064;-85
2022/01/24 08:53:31;;;;;;;8.73;4.65;;;5.10;99.90;;;;;;5031739;28;20037;-83
2022/01/24 08:56:01;;;;;;;9.48;5.03;;;4.80;99.90;;;;;;5014999;28;20049;-84
2022/01/24 08:58:28;;;;;;;11.98;5.32;;;4.90;99.90;;;;;;5014561;28;20049;-84
2022/01/24 09:00:54;;;;;;;11.35;5.97;;;5.40;99.90;;;;;;5014839;28;20490;-85
2022/01/24 09:03:20;;;;;;;11.77;5.55;;;5.40;99.90;;;;;;5032234;28;20051;-86
2022/01/24 09:05:47;;;;;;;11.13;5.22;;;5.20;99.90;;;;;;5031303;28;20048;-85
2022/01/24 09:08:13;;;;;;;9.25;4.18;;;5.00;99.90;;;;;;5014407;28;20065;-86
2022/01/24 09:10:40;;;;;;;7.95;4.05;;;4.70;99.90;;;;;;5014256;28;20034;-86
2022/01/24 09:13:07;;;;;;;10.38;5.15;;;4.90;99.90;;;;;;5014111;28;20044;-85
2022/01/24 09:15:33;;;;;;;11.43;5.75;;;5.60;99.90;;;;;;5015033;28;20071;-85
2022/01/24 09:17:59;;;;;;;10.43;5.65;;;5.70;99.90;;;;;;5031622;28;20539;-87
2022/01/24 09:20:25;;;;;;;10.48;5.68;;;4.70;99.90;;;;;;5031588;28;20405;-85
2022/01/24 09:22:51;;;;;;;10.18;5.90;;;5.90;99.90;;;;;;5014296;28;20120;-85
2022/01/24 09:25:19;;;;;;;7.65;4.28;;;4.60;99.90;;;;;;5014299;28;20088;-86
2022/01/24 09:27:46;;;;;;;10.93;5.55;;;5.70;99.90;;;;;;5031443;28;20396;-84
2022/01/24 09:30:15;;;;;;;8.23;4.43;;;5.60;99.90;;;;;;5014462;28;20555;-85
2022/01/24 09:32:41;;;;;;;8.90;4.30;;;5.90;99.90;;;;;;5013920;28;20613;-86
2022/01/24 09:35:10;;;;;;;7.97;4.32;;;5.90;99.90;;;;;;5013904;28;20049;-86
2022/01/24 09:37:36;;;;;;;8.00;4.07;;;5.70;99.90;;;;;;5013736;28;20048;-84
2022/01/24 09:40:03;;;;;;;7.85;4.28;;;5.50;99.90;;;;;;5031812;28;20047;-85
2022/01/24 09:42:29;;;;;;;9.18;4.60;;;5.10;99.90;;;;;;5031047;28;20049;-84
2022/01/24 09:44:56;;;;;;;8.40;4.43;;;4.90;99.90;;;;;;5031574;28;20100;-85
2022/01/24 09:47:22;;;;;;;11.85;6.28;;;5.10;99.90;;;;;;5030793;28;20133;-91
2022/01/24 09:49:50;;;;;;;9.13;5.25;;;6.10;99.90;;;;;;5009896;28;20124;-82
2022/01/24 09:52:16;;;;;;;8.98;5.07;;;5.70;99.90;;;;;;5013895;28;20059;-83
2022/01/24 09:54:42;;;;;;;10.27;5.43;;;5.20;99.90;;;;;;5030550;28;20129;-83
2022/01/24 09:57:08;;;;;;;12.05;5.25;;;5.20;99.90;;;;;;5031501;28;20124;-84
2022/01/24 09:59:33;;;;;;;9.48;4.93;;;5.20;99.90;;;;;;5030834;28;20097;-85
2022/01/24 10:02:00;;;;;;;12.63;6.03;;;5.80;99.90;;;;;;5014223;28;20121;-86
2022/01/24 10:04:26;;;;;;;13.20;5.97;;;5.30;99.90;;;;;;5013928;28;20111;-86
2022/01/24 10:07:15;;;;;;;13.43;6.32;;;5.30;99.90;;;;;;5030900;28;20046;-85
2022/01/24 10:09:41;;;;;;;13.00;6.50;;;5.30;99.90;;;;;;5028724;28;20081;-83
2022/01/24 10:12:28;;;;;;;12.93;6.15;;;5.20;99.90;;;;;;5014142;28;20119;-86
2022/01/24 10:17:41;;;;;;;;;;;5.30;99.90;;;;;;5031802;28;20065;-86
2022/01/24 10:20:35;;;;;;;15.48;8.23;;;5.30;99.90;;;;;;5030057;28;20348;-85
2022/01/24 10:23:15;;;;;;;12.10;6.60;;;5.40;99.90;;;;;;5012894;28;20137;-84
2022/01/24 10:25:49;;;;;;;13.05;6.85;;;5.40;99.90;;;;;;5030866;28;20096;-86
2022/01/24 10:28:28;;;;;;;13.98;6.72;;;5.70;99.90;;;;;;5031055;28;20497;-84
2022/01/24 10:31:05;;;;;;;11.20;5.82;;;5.40;99.90;;;;;;5030943;28;20037;-80
2022/01/24 10:33:31;;;;;;;12.05;6.55;;;5.40;99.90;;;;;;5031106;28;20398;-84
2022/01/24 10:36:00;;;;;;;13.55;6.53;;;5.40;99.90;;;;;;5030800;28;20046;-91
2022/01/24 10:41:18;;;;;;;14.40;6.90;;;6.20;99.90;;;;;;5035038;28;20045;-87
2022/01/24 10:43:45;;;;;;;12.68;6.18;;;5.70;99.90;;;;;;5030001;28;20072;-83
2022/01/24 10:46:12;;;;;;;10.57;6.13;;;5.70;99.90;;;;;;5034355;28;20045;-84
2022/01/24 10:48:41;;;;;;;10.68;5.80;;;5.50;99.90;;;;;;5009643;28;20498;-82
2022/01/24 10:51:11;;;;;;;11.55;6.07;;;5.60;99.90;;;;;;5017288;28;20068;-86
2022/01/24 10:53:40;;;;;;;13.23;6.85;;;5.60;99.90;;;;;;5034170;28;20045;-85
2022/01/24 10:56:29;;;;;;;15.95;7.70;;;5.90;99.90;;;;;;5034657;28;20481;-85
2022/01/24 10:59:06;;;;;;;12.57;6.53;;;5.40;99.90;;;;;;4997857;28;20040;-85
2022/01/24 11:01:33;;;;;;;13.82;7.15;;;5.60;99.90;;;;;;5015639;28;20524;-84
2022/01/24 11:04:10;;;;;;;15.25;6.80;;;6.20;99.90;;;;;;4998056;28;20050;-86
2022/01/24 11:06:40;;;;;;;13.02;7.05;;;5.80;99.90;;;;;;5015487;28;20105;-84
2022/01/24 11:09:22;;;;;;;13.43;7.30;;;6.20;99.90;;;;;;4997567;28;20085;-85
2022/01/24 11:11:57;;;;;;;12.60;6.53;;;6.30;99.90;;;;;;5017513;28;20086;-84
2022/01/24 11:14:25;;;;;;;14.45;7.68;;;6.40;99.90;;;;;;5034614;28;20095;-83
2022/01/24 11:16:52;;;;;;;15.38;7.80;;;6.10;99.90;;;;;;5034897;28;20548;-85
2022/01/24 11:21:53;;;;;;;13.98;7.82;;;5.60;99.90;;;;;;5035185;28;20409;-86
2022/01/24 11:24:25;;;;;;;13.98;7.40;;;5.70;99.90;;;;;;5016905;28;20045;-86
2022/01/24 11:26:52;;;;;;;15.77;7.30;;;6.20;99.90;;;;;;5017395;28;20053;-86
2022/01/24 11:29:19;;;;;;;13.00;6.60;;;5.90;99.90;;;;;;5035073;28;20046;-86
2022/01/24 11:31:49;;;;;;;20.92;10.07;;;5.70;99.90;;;;;;5017264;28;20046;-85
2022/01/24 11:34:35;;;;;;;20.25;10.00;;;5.70;99.90;;;;;;5034549;28;20084;-85
2022/01/24 11:37:01;;;;;;;20.80;11.18;;;5.70;99.90;;;;;;5035024;28;20045;-86
2022/01/24 11:39:27;;;;;;;20.23;10.13;;;5.70;99.90;;;;;;5034679;28;20042;-81
2022/01/24 11:41:53;;;;;;;14.25;8.38;;;5.80;99.90;;;;;;5035042;28;20046;-85
2022/01/24 11:44:21;;;;;;;15.77;7.97;;;5.80;99.90;;;;;;5017006;28;20049;-85
2022/01/24 11:46:55;;;;;;;17.67;8.73;;;5.90;99.90;;;;;;5034055;28;20077;-86
2022/01/24 11:49:41;;;;;;;14.25;7.47;;;6.10;99.90;;;;;;5016342;28;20514;-84
2022/01/24 11:52:28;;;;;;;17.27;8.63;;;5.80;99.90;;;;;;5016571;28;20502;-85
2022/01/24 11:57:40;;;;;;;17.63;9.27;;;5.80;99.90;;;;;;5034270;28;20046;-84
2022/01/24 12:00:06;;;;;;;18.00;8.32;;;6.10;99.90;;;;;;5016573;28;20057;-85
2022/01/24 12:02:40;;;;;;;16.70;8.95;;;6.40;99.90;;;;;;5016490;28;20053;-85
2022/01/24 12:05:25;;;;;;;18.95;9.50;;;5.70;99.90;;;;;;5016964;28;20049;-84
2022/01/24 12:08:00;;;;;;;18.47;8.57;;;5.80;99.90;;;;;;5016449;28;20057;-85
2022/01/24 12:10:32;;;;;;;16.65;8.65;;;6.50;99.90;;;;;;5033999;28;20056;-84
2022/01/24 12:13:03;;;;;;;13.73;7.55;;;6.10;99.90;;;;;;5034070;28;20077;-84
2022/01/24 12:15:38;;;;;;;16.25;7.75;;;6.70;99.90;;;;;;5016320;28;20038;-83
2022/01/24 12:18:43;;;;;;;14.18;8.05;;;7.70;99.90;;;;;;5033443;28;20052;-85
2022/01/24 12:21:20;;;;;;;15.50;8.20;;;5.90;99.90;;;;;;4972579;28;20050;-82
2022/01/24 12:24:03;;;;;;;14.32;7.70;;;5.90;99.90;;;;;;4973126;28;20062;-84
2022/01/24 12:26:32;;;;;;;17.92;8.85;;;5.90;99.90;;;;;;4972740;28;20061;-81
2022/01/24 12:29:01;;;;;;;20.45;10.13;;;5.90;99.90;;;;;;4972549;28;20047;-83
2022/01/24 12:31:37;;;;;;;19.50;10.55;;;6.60;99.90;;;;;;4992139;28;20085;-84
2022/01/24 12:34:41;;;;;;;15.20;8.48;;;5.90;99.90;;;;;;4976289;28;20089;-84
2022/01/24 12:37:29;;;;;;;20.85;10.65;;;5.90;99.90;;;;;;4972810;28;20180;-84
2022/01/24 12:39:58;;;;;;;14.10;8.00;;;5.90;99.90;;;;;;4972639;28;20519;-84
2022/01/24 12:42:40;;;;;;;15.88;9.00;;;6.60;99.90;;;;;;4972779;28;20118;-81
2022/01/24 12:48:06;;;;;;;18.55;9.82;;;5.90;99.90;;;;;;4955242;28;20058;-82
2022/01/24 12:50:31;;;;;;;16.08;8.65;;;6.10;99.90;;;;;;4954635;28;20078;-82
2022/01/24 12:52:57;;;;;;;17.38;8.45;;;6.20;99.90;;;;;;4990039;28;20133;-82
2022/01/24 12:55:23;;;;;;;17.73;8.98;;;5.90;99.90;;;;;;4974811;28;20169;-82
2022/01/24 12:57:49;;;;;;;16.63;8.90;;;6.50;99.90;;;;;;4990794;28;20553;-90
2022/01/24 13:00:18;;;;;;;15.98;8.98;;;6.00;99.90;;;;;;4973647;28;20144;-83
2022/01/24 13:02:44;;;;;;;19.70;8.88;;;5.90;99.90;;;;;;4974783;28;20478;-85
2022/01/24 13:05:12;;;;;;;16.63;8.40;;;5.90;99.90;;;;;;4990631;28;20096;-85
2022/01/24 13:07:40;;;;;;;19.90;8.95;;;6.80;99.90;;;;;;4990666;28;20059;-86
2022/01/24 13:10:18;;;;;;;15.57;8.15;;;6.00;99.90;;;;;;4974880;28;20046;-85
2022/01/24 13:12:44;;;;;;;17.00;8.85;;;5.90;99.90;;;;;;4996830;28;20054;-86
2022/01/24 13:15:23;;;;;;;18.33;8.98;;;5.90;99.90;;;;;;5031899;28;20095;-84
2022/01/24 13:23:23;;;;;;;14.75;7.72;;;6.20;99.90;;;;;;5024715;28;20493;-87
2022/01/24 13:25:49;;;;;;;17.17;8.20;;;6.50;99.90;;;;;;5031391;28;20048;-82
2022/01/24 13:28:19;;;;;;;17.05;9.77;;;5.90;99.90;;;;;;5030631;28;20068;-85
2022/01/24 13:30:52;;;;;;;16.88;8.82;;;6.40;99.90;;;;;;5031708;28;20045;-87
2022/01/24 13:33:21;;;;;;;18.30;10.57;;;5.90;99.90;;;;;;5031419;28;20061;-86
2022/01/24 13:35:51;;;;;;;18.17;9.45;;;5.80;99.90;;;;;;5031794;28;20042;-88
2022/01/24 13:38:26;;;;;;;16.58;8.90;;;5.80;99.90;;;;;;5031233;28;20556;-88
2022/01/24 13:43:45;;;;;;;16.30;8.70;;;6.50;99.90;;;;;;5030358;28;20588;-84
2022/01/24 13:46:26;;;;;;;16.92;9.40;;;5.80;99.90;;;;;;5014462;28;20053;-94
2022/01/24 13:48:57;;;;;;;18.50;9.13;;;5.80;99.90;;;;;;5031694;28;20422;-88
2022/01/24 13:51:40;;;;;;;15.80;8.35;;;5.80;99.90;;;;;;5031910;28;20103;-88
2022/01/24 13:54:11;;;;;;;18.95;9.98;;;5.80;99.90;;;;;;5032098;28;20393;-85
2022/01/24 13:56:47;;;;;;;19.15;10.15;;;5.70;99.90;;;;;;5014309;28;20096;-86
2022/01/24 13:59:17;;;;;;;19.10;10.23;;;5.70;99.90;;;;;;5032283;28;20045;-85
2022/01/24 14:02:15;;;;;;;20.20;10.38;;;5.70;99.90;;;;;;5032434;28;20041;-86
2022/01/24 14:04:54;;;;;;;16.92;9.20;;;5.70;99.90;;;;;;5014307;28;20132;-82
2022/01/24 14:07:24;;;;;;;18.52;9.70;;;6.00;99.90;;;;;;5014259;28;20513;-85
2022/01/24 14:09:53;;;;;;;19.08;9.63;;;5.70;99.90;;;;;;5032033;28;20100;-83
2022/01/24 14:12:33;;;;;;;20.67;9.75;;;5.70;99.90;;;;;;5034880;28;20124;-84
2022/01/24 14:15:16;;;;;;;19.02;9.13;;;5.70;99.90;;;;;;5036324;28;20050;-84
2022/01/24 14:17:52;;;;;;;21.90;10.30;;;5.70;99.90;;;;;;4998721;28;20061;-86
2022/01/24 14:20:19;;;;;;;16.80;9.00;;;5.70;99.90;;;;;;5016342;28;20103;-85
2022/01/24 14:22:47;;;;;;;19.15;9.57;;;5.70;99.90;;;;;;5016250;28;20054;-84
2022/01/24 14:25:26;;;;;;;21.65;11.38;;;6.00;99.90;;;;;;5016358;28;20414;-83
2022/01/24 14:28:10;;;;;;;26.90;12.32;;;5.70;99.90;;;;;;5035053;28;20448;-83
2022/01/24 14:30:40;;;;;;;22.60;10.65;;;5.80;99.90;;;;;;5035270;28;20536;-81
2022/01/24 14:33:11;;;;;;;21.90;9.38;;;5.70;99.90;;;;;;5017814;28;20054;-86
2022/01/24 14:35:43;;;;;;;21.70;9.68;;;6.00;99.90;;;;;;5000900;28;20129;-84
2022/01/24 14:38:10;;;;;;;18.95;9.27;;;5.80;99.90;;;;;;5034710;28;20037;-83
2022/01/24 14:40:49;;;;;;;19.40;8.85;;;5.40;99.90;;;;;;5033805;28;20107;-85
2022/01/24 14:46:26;;;;;;;19.27;9.35;;;5.20;99.90;;;;;;5029962;28;20064;-83
2022/01/24 14:49:05;;;;;;;18.17;9.32;;;6.30;99.90;;;;;;5027603;28;20098;-86
2022/01/24 14:51:34;;;;;;;19.80;9.02;;;5.50;99.90;;;;;;5016778;28;20049;-85
2022/01/24 14:54:04;;;;;;;20.85;9.98;;;5.50;99.90;;;;;;5016573;28;20050;-82
2022/01/24 14:56:30;;;;;;;18.83;9.23;;;5.50;99.90;;;;;;5034127;28;20039;-84
2022/01/24 14:58:57;;;;;;;16.70;8.43;;;5.50;99.90;;;;;;5034379;28;20049;-84
2022/01/24 15:01:23;;;;;;;23.35;11.55;;;5.90;99.90;;;;;;5015742;28;20045;-84
2022/01/24 15:03:50;;;;;;;21.90;10.88;;;5.70;99.90;;;;;;5034027;28;20469;-83
2022/01/24 15:06:17;;;;;;;20.60;9.63;;;5.90;99.90;;;;;;5033804;28;20045;-84
2022/01/24 15:08:46;;;;;;;16.40;8.25;;;6.10;99.90;;;;;;5003968;28;20050;-85